Impacts TAF Board INFO
FOR SITUATIONAL AWARENESS. NOT TO BE USED FOR FLIGHT PLANNING PURPOSES.
IDs:

KTCL - Tuscaloosa Rgnl, AL, US

Issued at 1740 UTC 23 May 2018
Updated at 2223 UTC 23 May 2018
Potential Impact None Slight Moderate High
Time<<24/11Z 24/12Z 24/13Z 24/14Z 24/15Z 24/16Z 24/17Z 24/18Z 24/19Z 24/20Z 24/21Z 24/22Z 24/23Z>>
Type PRVL PRVL PRVL PRVL PRVL PRVL PRVL
VIS >6 >6 >6 >6 >6 >6 >6
CIG 150 150 150 150 150 150 150
Cover BKN BKN BKN BKN BKN BKN BKN
FltCat VFR VFR VFR VFR VFR VFR VFR
WX -- -- -- -- -- -- --
WDir VRB VRB VRB VRB VRB VRB VRB
WSpd 2 2 2 2 2 2 2
WGst -- -- -- -- -- -- --

Raw TAF
KTCL 231740Z 2318/2418 31007KT P6SM VCTS SCT050CB BKN080
  FM232300 VRB02KT P6SM SCT035 SCT070 BKN150


METAR Board
Radar Display
Forecast Discussion

FOR SITUATIONAL AWARENESS. NOT TO BE USED FOR FLIGHT PLANNING PURPOSES.